createdAt,value
2018-10-11T00:00:09.807Z,3.4
2018-10-11T00:00:39.541Z,3.6
2018-10-11T00:01:09.471Z,3.7
2018-10-11T00:01:39.045Z,3.4
2018-10-11T00:02:08.774Z,3.3
2018-10-11T00:02:38.446Z,3.5
2018-10-11T00:03:08.108Z,3.2
2018-10-11T00:03:37.761Z,3.3
2018-10-11T00:04:07.275Z,3.3
2018-10-11T00:04:37.143Z,3.4
2018-10-11T00:05:06.826Z,3.3
2018-10-11T00:05:36.446Z,3.1
2018-10-11T00:06:06.430Z,3.2
2018-10-11T00:06:36.213Z,3.7
2018-10-11T00:07:05.758Z,3.5
2018-10-11T00:07:35.521Z,3.1
2018-10-11T00:08:05.043Z,3.2
2018-10-11T00:08:34.909Z,3.5
2018-10-11T00:09:04.572Z,3.1
2018-10-11T00:09:35.132Z,3.9
2018-10-11T00:10:05.533Z,3.2
2018-10-11T00:10:35.483Z,3.3
2018-10-11T00:11:05.216Z,3.2
2018-10-11T00:11:35.101Z,3.1
2018-10-11T00:12:05.044Z,3.2
2018-10-11T00:12:34.587Z,3.4
2018-10-11T00:13:04.554Z,3.2
2018-10-11T00:13:34.654Z,3.1
2018-10-11T00:14:04.151Z,3.4
2018-10-11T00:14:33.759Z,3.3
2018-10-11T00:15:03.263Z,3.3
2018-10-11T00:15:33.009Z,3.2
2018-10-11T00:16:02.654Z,3.2
2018-10-11T00:16:32.190Z,3.3
2018-10-11T00:17:03.502Z,3.2
2018-10-11T00:17:35.022Z,3.4
2018-10-11T00:18:06.842Z,3
2018-10-11T00:18:40.691Z,3.6
2018-10-11T00:19:12.570Z,3.2
2018-10-11T00:19:45.182Z,3.4
2018-10-11T00:20:16.525Z,3.2
2018-10-11T00:20:56.997Z,3.3
2018-10-11T00:21:27.569Z,3.1
2018-10-11T00:21:59.781Z,3.3
2018-10-11T00:22:30.668Z,3.2
2018-10-11T00:23:01.463Z,3.2
2018-10-11T00:23:31.081Z,3.2
2018-10-11T00:24:00.885Z,3.4
2018-10-11T00:24:30.650Z,3.5
2018-10-11T00:25:00.657Z,3.4
2018-10-11T00:25:30.394Z,3.2
2018-10-11T00:25:59.978Z,3.6
2018-10-11T00:26:30.225Z,4
2018-10-11T00:26:59.747Z,3.3
2018-10-11T00:27:29.787Z,3.5
2018-10-11T00:28:00.491Z,3.6
2018-10-11T00:28:30.045Z,3.5
2018-10-11T00:28:59.833Z,3.6
2018-10-11T00:29:29.445Z,3.5
2018-10-11T00:29:59.307Z,3.2
2018-10-11T00:30:29.311Z,3.1
2018-10-11T00:30:59.059Z,3.7
2018-10-11T00:31:28.708Z,3.4
2018-10-11T00:31:58.553Z,3.7
2018-10-11T00:32:28.226Z,3.2
2018-10-11T00:32:57.762Z,3.2
2018-10-11T00:33:27.478Z,3.2
2018-10-11T00:33:57.741Z,3.2
2018-10-11T00:34:27.273Z,3.4
2018-10-11T00:34:56.887Z,3.4
2018-10-11T00:35:26.530Z,3.7
2018-10-11T00:35:56.223Z,4.5
2018-10-11T00:36:25.993Z,4
2018-10-11T00:36:55.909Z,3.4
2018-10-11T00:37:25.695Z,3.5
2018-10-11T00:37:55.276Z,3.3
2018-10-11T00:38:25.669Z,3.8
2018-10-11T00:38:55.321Z,3.4
2018-10-11T00:39:24.963Z,3.5
2018-10-11T00:39:54.599Z,3.3
2018-10-11T00:40:24.490Z,3.4
2018-10-11T00:40:54.270Z,3.2
2018-10-11T00:41:23.741Z,3.5
2018-10-11T00:41:53.505Z,3.6
2018-10-11T00:42:23.137Z,3.6
2018-10-11T00:42:52.931Z,3.3
2018-10-11T00:43:23.292Z,3.2
2018-10-11T00:43:53.201Z,3.3
2018-10-11T00:44:22.896Z,3.7
2018-10-11T00:44:52.516Z,3.6
2018-10-11T00:45:22.006Z,3.7
2018-10-11T00:45:51.607Z,3.8
2018-10-11T00:46:21.494Z,3.6
2018-10-11T00:46:51.004Z,3.5
2018-10-11T00:47:20.643Z,3.7
2018-10-11T00:47:51.647Z,3.7
2018-10-11T00:48:21.276Z,3.8
2018-10-11T00:48:50.860Z,3.7
2018-10-11T00:49:20.642Z,3.7
2018-10-11T00:49:50.190Z,3.5
2018-10-11T00:50:20.086Z,3.8
2018-10-11T00:50:49.605Z,3.9
2018-10-11T00:51:19.090Z,4
2018-10-11T00:51:48.575Z,3.8
2018-10-11T00:52:18.064Z,3.9
2018-10-11T00:52:47.550Z,3.6
2018-10-11T00:53:17.087Z,3.5
2018-10-11T00:53:46.572Z,3.6
2018-10-11T00:54:16.061Z,3.9
2018-10-11T00:54:45.736Z,3.4
2018-10-11T00:55:15.223Z,3.5
2018-10-11T00:55:44.718Z,3.6
2018-10-11T00:56:14.220Z,3.7
2018-10-11T00:56:43.715Z,3.7
2018-10-11T00:57:13.198Z,3.1
2018-10-11T00:57:42.725Z,4
2018-10-11T00:58:12.307Z,3.5
2018-10-11T00:58:41.809Z,3.6
2018-10-11T00:59:11.336Z,3.5
2018-10-11T00:59:40.824Z,3.4
2018-10-11T01:00:10.367Z,3.2
2018-10-11T01:00:39.877Z,4
2018-10-11T01:01:09.443Z,3.5
2018-10-11T01:01:39.141Z,3.5
2018-10-11T01:02:08.736Z,3.6
2018-10-11T01:02:38.227Z,4
2018-10-11T01:03:07.773Z,3.6
2018-10-11T01:03:37.280Z,3.8
2018-10-11T01:04:06.881Z,3.6
2018-10-11T01:04:36.387Z,3.6
2018-10-11T01:05:05.968Z,4.2
2018-10-11T01:05:35.465Z,3.6
2018-10-11T01:06:05.127Z,3.4
2018-10-11T01:06:34.639Z,3.7
2018-10-11T01:07:04.125Z,3.4
2018-10-11T01:07:33.655Z,3.4
2018-10-11T01:08:04.205Z,4.1
2018-10-11T01:08:33.776Z,3.9
2018-10-11T01:09:03.298Z,3.7
2018-10-11T01:09:32.901Z,3.6
2018-10-11T01:10:02.536Z,3.6
2018-10-11T01:10:32.020Z,3.6
2018-10-11T01:11:01.540Z,3.5
2018-10-11T01:11:31.169Z,3.7
2018-10-11T01:12:00.671Z,3.4
2018-10-11T01:12:30.192Z,3.8
2018-10-11T01:12:59.740Z,3.3
2018-10-11T01:13:29.324Z,3.6
2018-10-11T01:13:58.814Z,3.4
2018-10-11T01:14:28.323Z,3.4
2018-10-11T01:14:57.854Z,3.5
2018-10-11T01:15:27.451Z,3.7
2018-10-11T01:15:56.940Z,3.7
2018-10-11T01:16:26.436Z,3.5
2018-10-11T01:16:55.933Z,3.7
2018-10-11T01:17:25.422Z,3.3
2018-10-11T01:17:53.900Z,3.5
2018-10-11T01:18:23.406Z,3.4
2018-10-11T01:18:52.955Z,3.6
2018-10-11T01:19:23.467Z,3.3
2018-10-11T01:19:52.953Z,3.5
2018-10-11T01:20:22.463Z,3.3
2018-10-11T01:20:51.960Z,3.4
2018-10-11T01:21:21.513Z,3.5
2018-10-11T01:21:52.003Z,3.2
2018-10-11T01:22:21.528Z,3.2
2018-10-11T01:22:51.051Z,3.5
2018-10-11T01:23:21.543Z,3.5
2018-10-11T01:23:51.195Z,3.3
2018-10-11T01:24:20.641Z,3.5
2018-10-11T01:24:50.138Z,3.5
2018-10-11T01:25:19.632Z,3.2
2018-10-11T01:25:49.124Z,3.4
2018-10-11T01:26:18.619Z,3
2018-10-11T01:26:48.109Z,3.6
2018-10-11T01:27:17.612Z,3.4
2018-10-11T01:27:47.115Z,3.7
2018-10-11T01:28:16.624Z,3.5
2018-10-11T01:28:46.134Z,3.2
2018-10-11T01:29:15.688Z,3.5
2018-10-11T01:29:45.284Z,3.4
2018-10-11T01:30:14.777Z,3.3
2018-10-11T01:30:44.171Z,3.5
2018-10-11T01:31:13.700Z,3.3
2018-10-11T01:31:43.191Z,3.6
2018-10-11T01:32:12.696Z,3.5
2018-10-11T01:32:42.209Z,3.5
2018-10-11T01:33:12.701Z,3.4
2018-10-11T01:33:42.215Z,3.6
2018-10-11T01:34:11.773Z,3.3
2018-10-11T01:34:41.274Z,3.4
2018-10-11T01:35:10.771Z,3.4
2018-10-11T01:35:40.280Z,3.4
2018-10-11T01:36:09.764Z,3.5
2018-10-11T01:36:39.257Z,3.7
2018-10-11T01:37:08.750Z,3.5
2018-10-11T01:37:38.253Z,3.5
2018-10-11T01:38:07.745Z,3.7
2018-10-11T01:38:37.277Z,3.3
2018-10-11T01:39:06.775Z,3.6
2018-10-11T01:39:36.360Z,3.2
2018-10-11T01:40:05.874Z,3.3
2018-10-11T01:40:35.387Z,3.2
2018-10-11T01:41:04.891Z,3.5
2018-10-11T01:41:34.388Z,3.2
2018-10-11T01:42:03.872Z,3.3
2018-10-11T01:42:33.381Z,3.6
2018-10-11T01:43:02.904Z,3.1
2018-10-11T01:43:32.420Z,3.5
2018-10-11T01:44:01.914Z,3.4
2018-10-11T01:44:31.469Z,3.7
2018-10-11T01:45:00.971Z,3.3
2018-10-11T01:45:30.467Z,3.3
2018-10-11T01:45:59.993Z,3.4
2018-10-11T01:46:29.493Z,3.4
2018-10-11T01:46:58.985Z,3
2018-10-11T01:47:28.484Z,3.1
2018-10-11T01:47:57.978Z,3.5
2018-10-11T01:48:27.476Z,3.3
2018-10-11T01:48:57.980Z,3.1
2018-10-11T01:49:27.523Z,3.5
2018-10-11T01:49:57.017Z,3.5
2018-10-11T01:50:26.512Z,3.4
2018-10-11T01:50:56.036Z,3.4
2018-10-11T01:51:25.633Z,3.6
2018-10-11T01:51:55.149Z,3.6
2018-10-11T01:52:24.638Z,3.5
2018-10-11T01:52:54.214Z,3.8
2018-10-11T01:53:23.715Z,3.8
2018-10-11T01:53:53.225Z,3.6
2018-10-11T01:54:22.716Z,3.5
2018-10-11T01:54:52.268Z,3.6
2018-10-11T01:55:22.747Z,3.7
2018-10-11T01:55:52.272Z,3.7
2018-10-11T01:56:21.780Z,3.6
2018-10-11T01:56:51.420Z,3.7
2018-10-11T01:57:20.907Z,3.5
2018-10-11T01:57:50.414Z,3.5
2018-10-11T01:58:19.937Z,3.8
2018-10-11T01:58:49.440Z,3.5
2018-10-11T01:59:18.941Z,3.5
2018-10-11T01:59:48.483Z,3.8
2018-10-11T02:00:17.975Z,4
2018-10-11T02:00:47.470Z,4
2018-10-11T02:01:16.957Z,3.9
2018-10-11T02:01:46.449Z,4
2018-10-11T02:02:15.947Z,4.1
2018-10-11T02:02:46.432Z,4.6
2018-10-11T02:03:15.917Z,6.5
2018-10-11T02:03:45.409Z,5.8
2018-10-11T02:04:14.898Z,4.6
2018-10-11T02:04:44.394Z,5.1
2018-10-11T02:05:13.976Z,5
2018-10-11T02:05:43.481Z,4.4
2018-10-11T02:06:12.980Z,4.8
2018-10-11T02:06:42.458Z,6
2018-10-11T02:07:11.983Z,5.6
2018-10-11T02:07:41.476Z,5.2
2018-10-11T02:08:10.967Z,5.1
2018-10-11T02:08:40.455Z,4.5
2018-10-11T02:09:09.946Z,4.4
2018-10-11T02:09:39.609Z,3.6
2018-10-11T02:10:09.453Z,3.6
2018-10-11T02:10:38.964Z,4
2018-10-11T02:11:09.522Z,3.7
2018-10-11T02:11:39.064Z,3.8
2018-10-11T02:12:08.550Z,3.4
2018-10-11T02:12:38.043Z,3.6
2018-10-11T02:13:07.533Z,3.5
2018-10-11T02:13:37.026Z,3.4
2018-10-11T02:14:06.523Z,3.5
2018-10-11T02:14:36.032Z,3.5
2018-10-11T02:15:05.579Z,3.6
2018-10-11T02:15:35.133Z,3.6
2018-10-11T02:16:04.630Z,3.8
2018-10-11T02:16:34.159Z,3.6
2018-10-11T02:17:03.656Z,3.3
2018-10-11T02:17:33.160Z,3.3
2018-10-11T02:18:02.657Z,3.7
2018-10-11T02:18:32.193Z,3.6
2018-10-11T02:19:01.679Z,3.7
2018-10-11T02:19:31.168Z,3.7
2018-10-11T02:20:00.657Z,3.6
2018-10-11T02:20:30.198Z,3.2
2018-10-11T02:21:00.678Z,3.6
2018-10-11T02:21:30.180Z,3.4
2018-10-11T02:21:59.674Z,3.2
2018-10-11T02:22:29.192Z,3.4
2018-10-11T02:22:58.689Z,3.9
2018-10-11T02:23:28.226Z,3.3
2018-10-11T02:23:57.728Z,3.7
2018-10-11T02:24:27.218Z,3.2
2018-10-11T02:24:56.732Z,3.7
2018-10-11T02:25:26.260Z,3.4
2018-10-11T02:25:55.811Z,3.4
2018-10-11T02:26:25.299Z,3.5
2018-10-11T02:26:54.799Z,3.3
2018-10-11T02:27:24.297Z,3.2
2018-10-11T02:27:53.785Z,3.2
2018-10-11T02:28:24.278Z,3.4
2018-10-11T02:28:53.778Z,3.5
2018-10-11T02:29:23.338Z,3.3
2018-10-11T02:29:52.800Z,3.2
2018-10-11T02:30:22.309Z,3.1
2018-10-11T02:30:51.833Z,3.1
2018-10-11T02:31:21.333Z,3.4
2018-10-11T02:31:50.880Z,3.7
2018-10-11T02:32:20.323Z,3.5
2018-10-11T02:32:49.814Z,3.7
2018-10-11T02:33:19.312Z,3.2
2018-10-11T02:33:48.809Z,3.3
2018-10-11T02:34:18.301Z,3.5
2018-10-11T02:34:47.815Z,3.3
2018-10-11T02:35:17.327Z,3.4
2018-10-11T02:35:46.826Z,3.6
2018-10-11T02:36:16.377Z,3.2
2018-10-11T02:36:45.876Z,3.4
2018-10-11T02:37:15.382Z,3.6
2018-10-11T02:37:44.888Z,3.7
2018-10-11T02:38:14.382Z,3.5
2018-10-11T02:38:43.878Z,3.3
2018-10-11T02:39:13.392Z,3.6
2018-10-11T02:39:42.876Z,3.7
2018-10-11T02:40:12.377Z,3.5
2018-10-11T02:40:41.890Z,3.6
2018-10-11T02:41:11.432Z,3.5
2018-10-11T02:41:40.927Z,3.7
2018-10-11T02:42:10.440Z,4
2018-10-11T02:42:39.959Z,3.4
2018-10-11T02:43:09.457Z,3.4
2018-10-11T02:43:39.015Z,3.4
2018-10-11T02:44:08.508Z,3.4
2018-10-11T02:44:38.031Z,3.5
2018-10-11T02:45:07.638Z,3.9
2018-10-11T02:45:37.135Z,3.8
2018-10-11T02:46:07.601Z,4.1
2018-10-11T02:46:37.149Z,3.6
2018-10-11T02:47:06.648Z,3.7
2018-10-11T02:47:36.148Z,3.6
2018-10-11T02:48:05.647Z,3.9
2018-10-11T02:48:35.142Z,3.9
2018-10-11T02:49:04.635Z,3.9
2018-10-11T02:49:34.122Z,4.1
2018-10-11T02:50:03.677Z,3.6
2018-10-11T02:50:33.168Z,3.5
2018-10-11T02:51:02.672Z,3.7
2018-10-11T02:51:32.210Z,3.7
2018-10-11T02:52:01.718Z,3.5
2018-10-11T02:52:32.228Z,3.7
2018-10-11T02:53:01.716Z,3.8
2018-10-11T02:53:31.220Z,3.7
2018-10-11T02:54:00.745Z,3.8
2018-10-11T02:54:30.233Z,3.6
2018-10-11T02:54:59.721Z,3.5
2018-10-11T02:55:30.209Z,3.4
2018-10-11T02:55:59.730Z,3.5
2018-10-11T02:56:29.247Z,3.3
2018-10-11T02:56:58.840Z,3.6
2018-10-11T02:57:28.341Z,3.8
2018-10-11T02:57:57.848Z,3.6
2018-10-11T02:58:27.336Z,3.6
2018-10-11T02:58:56.831Z,3.4
2018-10-11T02:59:26.316Z,3.9
2018-10-11T02:59:55.802Z,3.8
2018-10-11T03:00:25.303Z,3.7
2018-10-11T03:00:54.800Z,3.9
2018-10-11T03:01:25.406Z,3.6
2018-10-11T03:01:57.326Z,3.4
2018-10-11T03:02:26.970Z,3.8
2018-10-11T03:02:56.460Z,3.7
2018-10-11T03:03:25.961Z,3.4
2018-10-11T03:03:55.456Z,3.4
2018-10-11T03:04:24.958Z,3.7
2018-10-11T03:04:54.465Z,3.5
2018-10-11T03:05:23.953Z,3.7
2018-10-11T03:05:53.461Z,3.7
2018-10-11T03:06:23.959Z,3.9
2018-10-11T03:06:53.460Z,3.9
2018-10-11T03:07:23.026Z,3.7
2018-10-11T03:07:52.508Z,3.8
2018-10-11T03:08:22.000Z,3.8
2018-10-11T03:08:51.483Z,3.7
2018-10-11T03:09:21.020Z,4.1
2018-10-11T03:09:50.484Z,3.9
2018-10-11T03:10:20.015Z,3.6
2018-10-11T03:10:49.505Z,3.7
2018-10-11T03:11:18.988Z,3.7
2018-10-11T03:11:48.481Z,3.9
2018-10-11T03:12:18.026Z,4.1
2018-10-11T03:12:47.531Z,4
2018-10-11T03:13:17.021Z,4.1
2018-10-11T03:13:46.519Z,3.6
2018-10-11T03:14:16.026Z,4
2018-10-11T03:14:45.522Z,3.9
2018-10-11T03:15:15.061Z,4
2018-10-11T03:15:44.554Z,3.8
2018-10-11T03:16:14.043Z,3.9
2018-10-11T03:16:43.555Z,3.8
2018-10-11T03:17:13.088Z,4.4
2018-10-11T03:17:42.616Z,4
2018-10-11T03:18:12.104Z,3.4
2018-10-11T03:18:41.588Z,3.7
2018-10-11T03:19:11.079Z,3.6
2018-10-11T03:19:40.576Z,3.6
2018-10-11T03:20:10.082Z,3.7
2018-10-11T03:20:39.610Z,4
2018-10-11T03:21:09.762Z,3.8
2018-10-11T03:21:39.286Z,3.5
2018-10-11T03:22:08.787Z,3.9
2018-10-11T03:22:38.330Z,3.8
2018-10-11T03:23:07.842Z,3.9
2018-10-11T03:23:37.332Z,3.9
2018-10-11T03:24:06.820Z,4.1
2018-10-11T03:24:36.315Z,3.6
2018-10-11T03:25:05.807Z,3.7
2018-10-11T03:25:35.301Z,3.7
2018-10-11T03:26:04.794Z,3.8
2018-10-11T03:26:34.286Z,4
2018-10-11T03:27:03.815Z,3.8
2018-10-11T03:27:33.370Z,4
2018-10-11T03:28:02.880Z,3.7
2018-10-11T03:28:32.372Z,4.1
2018-10-11T03:29:01.865Z,3.6
2018-10-11T03:29:31.367Z,4.1
2018-10-11T03:30:00.897Z,3.7
2018-10-11T03:30:30.430Z,3.7
2018-10-11T03:30:59.948Z,4
2018-10-11T03:31:29.457Z,3.9
2018-10-11T03:31:58.961Z,3.9
2018-10-11T03:32:28.455Z,4
2018-10-11T03:32:59.004Z,3.8
2018-10-11T03:33:28.502Z,3.9
2018-10-11T03:33:58.012Z,3.6
2018-10-11T03:34:27.510Z,4.1
2018-10-11T03:34:56.999Z,3.8
2018-10-11T03:35:27.482Z,3.5
2018-10-11T03:35:56.999Z,3.9
2018-10-11T03:36:26.508Z,3.6
2018-10-11T03:36:56.013Z,3.8
2018-10-11T03:37:25.540Z,3.7
2018-10-11T03:37:55.125Z,4.2
2018-10-11T03:38:24.706Z,4.1
2018-10-11T03:38:54.198Z,3.8
2018-10-11T03:39:23.713Z,4.2
2018-10-11T03:39:53.246Z,3.5
2018-10-11T03:40:22.762Z,3.6
2018-10-11T03:40:52.268Z,3.7
2018-10-11T03:41:21.769Z,3.5
2018-10-11T03:41:51.297Z,3.7
2018-10-11T03:42:20.797Z,3.7
2018-10-11T03:42:51.282Z,3.8
2018-10-11T03:43:20.826Z,3.5
2018-10-11T03:43:50.420Z,3.8
2018-10-11T03:44:19.907Z,3.8
2018-10-11T03:44:49.403Z,3.7
2018-10-11T03:45:18.895Z,4
2018-10-11T03:45:49.380Z,3.9
2018-10-11T03:46:18.907Z,4
2018-10-11T03:46:50.619Z,3.8
2018-10-11T03:47:20.117Z,4.1
2018-10-11T03:47:49.614Z,3.9
2018-10-11T03:48:19.157Z,3.8
2018-10-11T03:48:48.655Z,3.9
2018-10-11T03:49:18.151Z,3.6
2018-10-11T03:49:47.650Z,3.8
2018-10-11T03:50:17.154Z,3.7
2018-10-11T03:50:46.659Z,3.8
2018-10-11T03:51:16.194Z,4.1
2018-10-11T03:51:45.695Z,3.6
2018-10-11T03:52:15.214Z,3.8
2018-10-11T03:52:44.724Z,3.5
2018-10-11T03:53:14.218Z,3.7
2018-10-11T03:53:43.771Z,3.8
2018-10-11T03:54:13.277Z,3.9
2018-10-11T03:54:42.773Z,4.1
2018-10-11T03:55:12.341Z,3.7
2018-10-11T03:55:41.831Z,3.6
2018-10-11T03:56:11.370Z,3.6
2018-10-11T03:56:41.870Z,3.4
2018-10-11T03:57:11.366Z,3.8
2018-10-11T03:57:40.854Z,3.6
2018-10-11T03:58:10.351Z,3.6
2018-10-11T03:58:39.901Z,3.6
2018-10-11T03:59:09.390Z,3.6
2018-10-11T03:59:39.013Z,3.9
2018-10-11T04:00:08.501Z,4.2
2018-10-11T04:00:38.020Z,4.9
2018-10-11T04:01:07.535Z,4.9
2018-10-11T04:01:37.038Z,5.1
2018-10-11T04:02:06.532Z,5.1
2018-10-11T04:02:36.023Z,5
2018-10-11T04:03:05.512Z,5.3
2018-10-11T04:03:35.079Z,5.4
2018-10-11T04:04:04.599Z,5.2
2018-10-11T04:04:34.110Z,5.3
2018-10-11T04:05:03.590Z,5.8
2018-10-11T04:05:33.106Z,5.5
2018-10-11T04:06:02.630Z,5.6
2018-10-11T04:06:32.122Z,5.5
2018-10-11T04:07:02.602Z,5.5
2018-10-11T04:07:32.108Z,5.3
2018-10-11T04:08:01.587Z,5.5
2018-10-11T04:08:31.097Z,5.4
2018-10-11T04:09:00.675Z,5.5
2018-10-11T04:09:30.158Z,5.6
2018-10-11T04:09:59.652Z,5.8
2018-10-11T04:10:29.143Z,5.7
2018-10-11T04:10:58.646Z,5.4
2018-10-11T04:11:28.157Z,5.6
2018-10-11T04:11:57.645Z,5
2018-10-11T04:12:27.148Z,5.2
2018-10-11T04:12:56.671Z,5.1
2018-10-11T04:13:26.202Z,5
2018-10-11T04:13:55.729Z,5.1
2018-10-11T04:14:25.237Z,5.5
2018-10-11T04:14:54.727Z,5.1
2018-10-11T04:15:24.239Z,4.8
2018-10-11T04:15:53.714Z,5.1
2018-10-11T04:16:23.395Z,5
2018-10-11T04:16:53.861Z,5.1
2018-10-11T04:17:23.375Z,5.3
2018-10-11T04:17:52.866Z,5.4
2018-10-11T04:18:22.383Z,5.3
2018-10-11T04:18:51.895Z,5.2
2018-10-11T04:19:21.455Z,5
2018-10-11T04:19:50.961Z,5
2018-10-11T04:20:20.453Z,5.6
2018-10-11T04:20:49.960Z,5.2
2018-10-11T04:21:19.450Z,5.4
2018-10-11T04:21:48.940Z,5.2
2018-10-11T04:22:18.496Z,5.5
2018-10-11T04:22:47.990Z,5.3
2018-10-11T04:23:17.532Z,5.3
2018-10-11T04:23:47.050Z,5.3
2018-10-11T04:24:16.599Z,5.4
2018-10-11T04:24:46.091Z,5.1
2018-10-11T04:25:15.594Z,5
2018-10-11T04:25:45.084Z,5.1
2018-10-11T04:26:14.576Z,5.3
2018-10-11T04:26:44.075Z,5.5
2018-10-11T04:27:13.577Z,5.1
2018-10-11T04:27:43.064Z,5.3
2018-10-11T04:28:12.553Z,5.5
2018-10-11T04:28:42.049Z,5.5
2018-10-11T04:29:11.597Z,5.2
2018-10-11T04:29:41.128Z,5.2
2018-10-11T04:30:10.735Z,5.5
2018-10-11T04:30:40.141Z,5
2018-10-11T04:31:09.664Z,5.3
2018-10-11T04:31:39.216Z,5.3
2018-10-11T04:32:08.748Z,5.3
2018-10-11T04:32:38.287Z,5.5
2018-10-11T04:33:07.776Z,6.1
2018-10-11T04:33:37.323Z,5.2
2018-10-11T04:34:06.949Z,5.2
2018-10-11T04:34:36.493Z,5.6
2018-10-11T04:35:05.984Z,5.2
2018-10-11T04:35:35.471Z,5.5
2018-10-11T04:36:05.071Z,5.5
2018-10-11T04:36:35.456Z,5.6
2018-10-11T04:37:04.951Z,5.5
2018-10-11T04:37:34.472Z,5.5
2018-10-11T04:38:03.967Z,5.4
2018-10-11T04:38:33.486Z,5.3
2018-10-11T04:39:04.978Z,4.8
2018-10-11T04:39:34.476Z,4.4
2018-10-11T04:40:04.033Z,4.2
2018-10-11T04:40:33.537Z,4
2018-10-11T04:41:03.023Z,4.1
2018-10-11T04:41:32.533Z,4
2018-10-11T04:42:02.043Z,4
2018-10-11T04:42:31.533Z,3.9
2018-10-11T04:43:01.270Z,4.1
2018-10-11T04:43:30.543Z,3.9
2018-10-11T04:44:00.061Z,4.3
2018-10-11T04:44:29.570Z,4.2
2018-10-11T04:44:59.128Z,4
2018-10-11T04:45:28.633Z,4.3
2018-10-11T04:45:58.114Z,4
2018-10-11T04:46:27.615Z,3.8
2018-10-11T04:46:57.097Z,4
2018-10-11T04:47:26.592Z,4
2018-10-11T04:47:56.092Z,3.9
2018-10-11T04:48:25.584Z,3.8
2018-10-11T04:48:55.074Z,3.9
2018-10-11T04:49:24.574Z,3.9
2018-10-11T04:49:54.120Z,4.1
2018-10-11T04:50:23.615Z,4
2018-10-11T04:50:53.101Z,4
2018-10-11T04:51:22.594Z,4
2018-10-11T04:51:52.127Z,3.9
2018-10-11T04:52:21.629Z,3.8
2018-10-11T04:52:51.132Z,3.6
2018-10-11T04:53:20.613Z,3.7
2018-10-11T04:53:50.104Z,3.7
2018-10-11T04:54:19.647Z,3.6
2018-10-11T04:54:49.138Z,3.4
2018-10-11T04:55:18.680Z,3.3
2018-10-11T04:55:48.167Z,3.1
2018-10-11T04:56:17.669Z,3.2
2018-10-11T04:56:47.167Z,3.2
2018-10-11T04:57:16.652Z,3.3
2018-10-11T04:57:46.140Z,3.2
2018-10-11T04:58:15.643Z,3.2
2018-10-11T04:58:45.144Z,2.9
2018-10-11T04:59:14.641Z,3.2
2018-10-11T04:59:44.193Z,3.4
2018-10-11T05:00:14.687Z,3.4
2018-10-11T05:00:44.204Z,3.2
2018-10-11T05:01:13.690Z,3.3
2018-10-11T05:01:43.217Z,3.2
2018-10-11T05:02:12.686Z,3.5
2018-10-11T05:02:42.178Z,4
2018-10-11T05:03:11.754Z,5.2
2018-10-11T05:03:41.268Z,6
2018-10-11T05:04:10.763Z,4.2
2018-10-11T05:04:40.252Z,4.1
2018-10-11T05:05:09.827Z,3.8
2018-10-11T05:05:39.375Z,3.8
2018-10-11T05:06:08.861Z,3.5
2018-10-11T05:06:38.357Z,3.6
2018-10-11T05:07:07.869Z,3.2
2018-10-11T05:07:37.379Z,3.3
2018-10-11T05:08:06.913Z,3.4
2018-10-11T05:08:36.415Z,3
2018-10-11T05:09:06.905Z,3.1
2018-10-11T05:09:36.526Z,3.1
2018-10-11T05:10:06.013Z,2.8
2018-10-11T05:10:35.573Z,2.9
2018-10-11T05:11:05.109Z,2.9
2018-10-11T05:11:34.644Z,3.1
2018-10-11T05:12:04.149Z,2.9
2018-10-11T05:12:33.647Z,3.2
2018-10-11T05:13:03.148Z,3
2018-10-11T05:13:32.661Z,2.9
2018-10-11T05:14:02.164Z,3.1
2018-10-11T05:14:31.657Z,3
2018-10-11T05:15:02.150Z,3.1
2018-10-11T05:15:32.265Z,3
2018-10-11T05:16:01.823Z,2.8
2018-10-11T05:16:31.361Z,3.1
2018-10-11T05:17:00.895Z,3.3
2018-10-11T05:17:30.420Z,3.3
2018-10-11T05:17:59.885Z,3
2018-10-11T05:18:29.377Z,3.3
2018-10-11T05:18:58.924Z,3.4
2018-10-11T05:19:28.414Z,3.2
2018-10-11T05:19:58.939Z,3.5
2018-10-11T05:20:28.450Z,3.1
2018-10-11T05:20:58.105Z,3.1
2018-10-11T05:21:27.794Z,3
2018-10-11T05:21:57.225Z,3.2
2018-10-11T05:22:26.733Z,2.9
2018-10-11T05:22:56.277Z,3.1
2018-10-11T05:23:26.757Z,3.2
2018-10-11T05:23:56.260Z,3.2
2018-10-11T05:24:25.808Z,3.4
2018-10-11T05:24:56.278Z,3.1
2018-10-11T05:25:25.780Z,3.1
2018-10-11T05:25:55.293Z,3.6
2018-10-11T05:26:24.834Z,3.4
2018-10-11T05:26:54.344Z,3.2
2018-10-11T05:27:23.865Z,3.4
2018-10-11T05:27:53.366Z,3.7
2018-10-11T05:28:22.865Z,3.6
2018-10-11T05:28:52.400Z,3.5
2018-10-11T05:29:21.900Z,3.6
2018-10-11T05:29:51.402Z,3.6
2018-10-11T05:30:20.912Z,3.4
2018-10-11T05:30:50.390Z,3
2018-10-11T05:31:19.959Z,3.3
2018-10-11T05:31:49.503Z,3.5
2018-10-11T05:32:19.012Z,3.2
2018-10-11T05:32:48.504Z,3.5
2018-10-11T05:33:18.007Z,3.2
2018-10-11T05:33:47.505Z,3.4
2018-10-11T05:34:17.000Z,3.6
2018-10-11T05:34:46.507Z,3.6
2018-10-11T05:35:16.028Z,3.3
2018-10-11T05:35:45.520Z,3.2
2018-10-11T05:36:15.058Z,3.3
2018-10-11T05:36:44.606Z,3.7
2018-10-11T05:37:14.114Z,3.7
2018-10-11T05:37:43.624Z,3.7
2018-10-11T05:38:13.208Z,3.5
2018-10-11T05:38:42.648Z,3.7
2018-10-11T05:39:12.153Z,3.6
2018-10-11T05:39:41.670Z,4
2018-10-11T05:40:11.199Z,4
2018-10-11T05:40:40.700Z,4
2018-10-11T05:41:10.209Z,4.7
2018-10-11T05:41:39.775Z,4.5
2018-10-11T05:42:09.267Z,5.4
2018-10-11T05:42:38.781Z,5.9
2018-10-11T05:43:08.274Z,6.1
2018-10-11T05:43:37.770Z,5.7
2018-10-11T05:44:07.271Z,6.1
2018-10-11T05:44:36.767Z,6.1
2018-10-11T05:45:06.260Z,6
2018-10-11T05:45:35.754Z,5.7
2018-10-11T05:46:05.241Z,5.6
2018-10-11T05:46:35.734Z,5.3
2018-10-11T05:47:05.285Z,5.4
2018-10-11T05:47:34.769Z,5.1
2018-10-11T05:48:04.303Z,5.5
2018-10-11T05:48:33.806Z,5.8
2018-10-11T05:49:04.291Z,5.8
2018-10-11T05:49:33.811Z,5.5
2018-10-11T05:50:03.314Z,5.2
2018-10-11T05:50:33.821Z,5.2
2018-10-11T05:51:03.316Z,4.5
2018-10-11T05:51:33.805Z,4.7
2018-10-11T05:52:03.404Z,4.5
2018-10-11T05:52:32.887Z,4.8
2018-10-11T05:53:02.397Z,5.1
2018-10-11T05:53:31.936Z,4.6
2018-10-11T05:54:01.566Z,4.8
2018-10-11T05:54:31.078Z,5.2
2018-10-11T05:55:00.607Z,5.2
2018-10-11T05:55:30.192Z,5.3
2018-10-11T05:55:59.688Z,5.6
2018-10-11T05:56:29.262Z,5.5
2018-10-11T05:56:58.703Z,5.3
2018-10-11T05:57:28.261Z,5.3
2018-10-11T05:57:57.819Z,5.9
2018-10-11T05:58:27.383Z,5.3
2018-10-11T05:58:56.854Z,5.9
2018-10-11T05:59:26.354Z,5.7
2018-10-11T05:59:55.835Z,5.9
2018-10-11T06:00:25.325Z,6.3
2018-10-11T06:00:54.819Z,6.2
2018-10-11T06:01:24.319Z,6.2
2018-10-11T06:01:53.820Z,5.9
2018-10-11T06:02:23.376Z,6.5
2018-10-11T06:02:52.866Z,6.4
2018-10-11T06:03:22.362Z,6.4
2018-10-11T06:03:51.869Z,6.6
2018-10-11T06:04:21.411Z,6.3
2018-10-11T06:04:50.853Z,5.8
2018-10-11T06:05:20.339Z,5.7
2018-10-11T06:05:49.857Z,6
2018-10-11T06:06:19.341Z,6
2018-10-11T06:06:48.848Z,6.2
2018-10-11T06:07:18.384Z,6.2
2018-10-11T06:07:47.880Z,6.1
2018-10-11T06:08:17.397Z,5.9
2018-10-11T06:08:46.902Z,6.4
2018-10-11T06:09:17.047Z,6.6
2018-10-11T06:09:46.558Z,6
2018-10-11T06:10:16.059Z,6.5
2018-10-11T06:10:45.560Z,6.5
2018-10-11T06:11:16.067Z,6.5
2018-10-11T06:11:45.578Z,6.7
2018-10-11T06:12:15.081Z,6.6
2018-10-11T06:12:44.694Z,6
2018-10-11T06:13:14.205Z,6.7
2018-10-11T06:13:43.697Z,6.4
2018-10-11T06:14:13.201Z,6.6
2018-10-11T06:14:42.699Z,6.4
2018-10-11T06:15:12.215Z,6.4
2018-10-11T06:15:41.717Z,6.4
2018-10-11T06:16:11.220Z,6.1
2018-10-11T06:16:40.761Z,6.4
2018-10-11T06:17:10.254Z,7
2018-10-11T06:17:39.859Z,6.6
2018-10-11T06:18:09.320Z,6.4
2018-10-11T06:18:38.840Z,6.5
2018-10-11T06:19:08.340Z,6.6
2018-10-11T06:19:37.851Z,6.4
2018-10-11T06:20:07.335Z,6.6
2018-10-11T06:20:36.846Z,6.3
2018-10-11T06:21:06.335Z,6.7
2018-10-11T06:21:35.827Z,6.3
2018-10-11T06:22:05.308Z,6
2018-10-11T06:22:34.813Z,5.9
2018-10-11T06:23:04.364Z,5.5
2018-10-11T06:23:33.872Z,5.3
2018-10-11T06:24:03.347Z,5
2018-10-11T06:24:32.840Z,4.9
2018-10-11T06:25:02.364Z,4.6
2018-10-11T06:25:31.870Z,4.9
2018-10-11T06:26:02.416Z,4.8
2018-10-11T06:26:31.909Z,4.7
2018-10-11T06:27:01.433Z,4.7
2018-10-11T06:27:30.924Z,4.6
2018-10-11T06:28:00.482Z,5
2018-10-11T06:28:30.000Z,5.4
2018-10-11T06:28:59.496Z,4.9
2018-10-11T06:29:29.008Z,4.6
2018-10-11T06:29:58.505Z,4.4
2018-10-11T06:30:28.069Z,4.4
2018-10-11T06:30:57.501Z,4.4
2018-10-11T06:31:26.995Z,4.5
2018-10-11T06:31:56.486Z,4.2
2018-10-11T06:32:25.978Z,4.6
2018-10-11T06:32:55.467Z,4.4
2018-10-11T06:33:25.017Z,4.5
2018-10-11T06:33:54.574Z,4.2
2018-10-11T06:34:24.014Z,4.5
2018-10-11T06:34:53.507Z,4.2
2018-10-11T06:35:22.998Z,4.4
2018-10-11T06:35:52.500Z,4.2
2018-10-11T06:36:21.999Z,4.1
2018-10-11T06:36:51.474Z,4.1
2018-10-11T06:37:20.963Z,4.2
2018-10-11T06:37:50.480Z,4.1
2018-10-11T06:38:20.080Z,4.2
2018-10-11T06:38:49.562Z,4.2
2018-10-11T06:39:19.049Z,4
2018-10-11T06:39:48.603Z,4.3
2018-10-11T06:40:18.104Z,3.9
2018-10-11T06:40:47.626Z,4.1
2018-10-11T06:41:17.120Z,4
2018-10-11T06:41:46.623Z,4.2
2018-10-11T06:42:16.141Z,4.2
2018-10-11T06:42:45.748Z,4.3
2018-10-11T06:43:15.238Z,4.4
2018-10-11T06:43:45.101Z,4.3
2018-10-11T06:44:14.656Z,4.3
2018-10-11T06:44:44.166Z,4.1
2018-10-11T06:45:13.657Z,4.3
2018-10-11T06:45:43.137Z,4.5
2018-10-11T06:46:12.620Z,4.4
2018-10-11T06:46:42.168Z,3.9
2018-10-11T06:47:11.684Z,4.3
2018-10-11T06:47:41.162Z,4.3
2018-10-11T06:48:11.657Z,5
2018-10-11T06:48:41.213Z,4.2
2018-10-11T06:49:10.702Z,4.3
2018-10-11T06:49:40.208Z,4.2
2018-10-11T06:50:09.737Z,4.2